createdAt,value
2022-12-13T00:01:57.815Z,-1.10
2022-12-13T00:04:26.622Z,-1.02
2022-12-13T00:06:54.716Z,-1.14
2022-12-13T00:09:22.717Z,-1.04
2022-12-13T00:11:50.975Z,-0.69
2022-12-13T00:14:18.861Z,-0.96
2022-12-13T00:16:48.360Z,-1.00
2022-12-13T00:19:17.272Z,-1.47
2022-12-13T00:21:45.242Z,-1.54
2022-12-13T00:24:13.126Z,-1.35
2022-12-13T00:26:41.305Z,-1.23
2022-12-13T00:29:09.799Z,-1.02
2022-12-13T00:34:26.035Z,-1.27
2022-12-13T00:36:54.938Z,-1.03
2022-12-13T00:39:22.855Z,-1.22
2022-12-13T00:41:51.273Z,-1.59
2022-12-13T00:44:20.183Z,-1.39
2022-12-13T00:46:48.073Z,-1.54
2022-12-13T00:49:16.196Z,-1.23
2022-12-13T00:51:44.222Z,-1.41
2022-12-13T00:54:11.984Z,-1.26
2022-12-13T00:56:40.167Z,-1.19
2022-12-13T00:59:08.388Z,-1.72
2022-12-13T01:01:36.918Z,-1.23
2022-12-13T01:04:06.390Z,-0.98
2022-12-13T01:06:45.523Z,-0.91
2022-12-13T01:09:22.841Z,-1.00
2022-12-13T01:11:50.914Z,-0.57
2022-12-13T01:14:19.204Z,-0.74
2022-12-13T01:16:47.143Z,-1.12
2022-12-13T01:19:15.008Z,-1.68
2022-12-13T01:21:43.298Z,-0.93
2022-12-13T01:24:11.401Z,-0.91
2022-12-13T01:26:39.325Z,-1.18
2022-12-13T01:29:09.104Z,-1.10
2022-12-13T01:31:41.646Z,-1.66
2022-12-13T01:34:11.525Z,-1.50
2022-12-13T01:36:40.738Z,-1.40
2022-12-13T01:39:14.877Z,-1.06
2022-12-13T01:41:45.902Z,-1.03
2022-12-13T01:44:51.641Z,-1.77
2022-12-13T01:47:30.927Z,-1.53
2022-12-13T01:50:01.310Z,-1.37
2022-12-13T01:52:32.688Z,-1.55
2022-12-13T01:55:03.793Z,-1.59
2022-12-13T01:57:33.722Z,-1.75
2022-12-13T02:00:02.110Z,-1.53
2022-12-13T02:02:35.328Z,-1.01
2022-12-13T02:05:35.079Z,-1.29
2022-12-13T02:08:03.706Z,-1.65
2022-12-13T02:10:32.560Z,-1.57
2022-12-13T02:13:00.417Z,-1.39
2022-12-13T02:15:34.647Z,-1.44
2022-12-13T02:18:06.827Z,-1.57
2022-12-13T02:21:01.638Z,-1.60
2022-12-13T02:23:48.097Z,-2.40
2022-12-13T02:26:44.885Z,-2.12
2022-12-13T02:29:37.571Z,-1.96
2022-12-13T02:32:28.660Z,-2.01
2022-12-13T02:35:04.447Z,-2.23
2022-12-13T02:37:58.814Z,-2.03
2022-12-13T02:40:30.755Z,-1.80
2022-12-13T02:43:03.798Z,-1.65
2022-12-13T02:45:38.271Z,-1.95
2022-12-13T02:48:08.000Z,-1.69
2022-12-13T02:50:36.299Z,-1.93
2022-12-13T02:53:05.601Z,-1.99
2022-12-13T02:55:36.068Z,-1.73
2022-12-13T02:58:04.908Z,-1.61
2022-12-13T03:00:51.476Z,-1.95
2022-12-13T03:03:37.240Z,-1.89
2022-12-13T03:06:34.157Z,-2.03
2022-12-13T03:09:26.415Z,-1.76
2022-12-13T03:12:24.855Z,-1.59
2022-12-13T03:15:27.593Z,-2.04
2022-12-13T03:18:16.030Z,-2.26
2022-12-13T03:20:51.510Z,-2.17
2022-12-13T03:23:20.515Z,-2.03
2022-12-13T03:25:52.296Z,-2.24
2022-12-13T03:28:20.674Z,-1.92
2022-12-13T03:30:48.930Z,-2.34
2022-12-13T03:33:16.932Z,-2.33
2022-12-13T03:35:45.836Z,-2.04
2022-12-13T03:38:21.601Z,-2.49
2022-12-13T03:41:00.052Z,-2.17
2022-12-13T03:43:28.710Z,-2.38
2022-12-13T03:45:56.660Z,-1.81
2022-12-13T03:48:24.798Z,-1.42
2022-12-13T03:50:53.901Z,-2.35
2022-12-13T03:53:33.521Z,-2.31
2022-12-13T03:56:04.927Z,-1.75
2022-12-13T03:58:37.007Z,-3.12
2022-12-13T04:01:10.849Z,-3.51
2022-12-13T04:03:40.269Z,-4.09
2022-12-13T04:06:09.395Z,-3.45
2022-12-13T04:08:38.610Z,-3.29
2022-12-13T04:11:26.533Z,-3.09
2022-12-13T04:13:54.959Z,-2.82
2022-12-13T04:16:23.919Z,-3.04
2022-12-13T04:18:51.853Z,-3.65
2022-12-13T04:21:19.733Z,-3.37
2022-12-13T04:23:47.863Z,-3.13
2022-12-13T04:26:15.788Z,-3.41
2022-12-13T04:28:43.579Z,-3.03
2022-12-13T04:31:11.712Z,-2.74
2022-12-13T04:33:39.669Z,-2.52
2022-12-13T04:36:08.600Z,-2.57
2022-12-13T04:38:36.710Z,-2.77
2022-12-13T04:41:10.736Z,-2.89
2022-12-13T04:43:38.827Z,-2.68
2022-12-13T04:46:06.772Z,-1.86
2022-12-13T04:48:34.761Z,-1.72
2022-12-13T04:51:03.146Z,-2.31
2022-12-13T04:53:31.068Z,-2.54
2022-12-13T04:55:59.586Z,-3.21
2022-12-13T04:58:28.139Z,-3.68
2022-12-13T05:00:56.183Z,-3.81
2022-12-13T05:03:24.531Z,-3.72
2022-12-13T05:05:52.663Z,-3.74
2022-12-13T05:08:20.531Z,-4.09
2022-12-13T05:10:48.551Z,-3.58
2022-12-13T05:13:16.892Z,-4.66
2022-12-13T05:15:44.688Z,-4.53
2022-12-13T05:18:12.561Z,-4.84
2022-12-13T05:20:41.377Z,-4.08
2022-12-13T05:23:09.776Z,-4.97
2022-12-13T05:25:37.596Z,-4.77
2022-12-13T05:28:09.096Z,-4.64
2022-12-13T05:31:22.521Z,-4.88
2022-12-13T05:33:52.777Z,-4.10
2022-12-13T05:36:22.706Z,-3.27
2022-12-13T05:38:50.523Z,-4.22
2022-12-13T05:41:21.393Z,-5.23
2022-12-13T05:43:49.373Z,-4.88
2022-12-13T05:46:17.248Z,-4.66
2022-12-13T05:48:45.752Z,-4.71
2022-12-13T05:51:13.555Z,-4.61
2022-12-13T05:53:42.311Z,-4.63
2022-12-13T05:56:11.646Z,-4.20
2022-12-13T05:58:40.732Z,-4.69
2022-12-13T06:01:10.589Z,-3.80
2022-12-13T06:03:39.224Z,-3.57
2022-12-13T06:06:08.789Z,-3.76
2022-12-13T06:08:37.407Z,-3.78
2022-12-13T06:11:11.261Z,-3.88
2022-12-13T06:13:44.087Z,-3.81
2022-12-13T06:16:23.852Z,-4.32
2022-12-13T06:18:59.330Z,-5.25
2022-12-13T06:21:41.120Z,-5.88
2022-12-13T06:24:18.018Z,-6.36
2022-12-13T06:26:46.432Z,-5.73
2022-12-13T06:29:23.692Z,-5.27
2022-12-13T06:32:00.992Z,-4.77
2022-12-13T06:34:33.497Z,-4.35
2022-12-13T06:37:04.661Z,-3.97
2022-12-13T06:39:33.649Z,-4.00
2022-12-13T06:42:06.370Z,-4.76
2022-12-13T06:44:35.531Z,-4.52
2022-12-13T06:47:11.604Z,-4.36
2022-12-13T06:49:43.136Z,-4.31
2022-12-13T06:52:13.242Z,-5.09
2022-12-13T06:54:42.518Z,-4.50
2022-12-13T06:57:13.689Z,-4.54
2022-12-13T06:59:42.277Z,-4.28
2022-12-13T07:02:15.326Z,-3.60
2022-12-13T07:04:54.184Z,-3.13
2022-12-13T07:07:22.340Z,-3.02
2022-12-13T07:09:50.138Z,-3.16
2022-12-13T07:12:19.471Z,-2.86
2022-12-13T07:14:47.880Z,-2.77
2022-12-13T07:17:32.495Z,-2.82
2022-12-13T07:20:04.992Z,-3.36
2022-12-13T07:22:34.558Z,-3.16
2022-12-13T07:25:05.174Z,-2.39
2022-12-13T07:27:34.126Z,-2.86
2022-12-13T07:30:02.123Z,-2.86
2022-12-13T07:32:30.679Z,-2.26
2022-12-13T07:34:58.747Z,-1.76
2022-12-13T07:37:30.076Z,-0.89
2022-12-13T07:40:04.379Z,-0.90
2022-12-13T07:42:32.789Z,-0.71
2022-12-13T07:45:01.009Z,0.28
2022-12-13T07:47:32.702Z,-0.22
2022-12-13T07:50:01.488Z,-0.45
2022-12-13T07:52:29.869Z,0.17
2022-12-13T07:54:57.860Z,0.93
2022-12-13T07:57:27.211Z,0.66
2022-12-13T07:59:54.956Z,1.11
2022-12-13T08:02:23.046Z,0.94
2022-12-13T08:04:54.831Z,2.10
2022-12-13T08:07:23.423Z,2.28
2022-12-13T08:09:53.262Z,2.03
2022-12-13T08:12:22.529Z,2.89
2022-12-13T08:14:53.460Z,2.02
2022-12-13T08:17:22.130Z,2.41
2022-12-13T08:19:50.249Z,1.89
2022-12-13T08:22:24.093Z,1.30
2022-12-13T08:24:52.745Z,1.94
2022-12-13T08:27:21.189Z,1.61
2022-12-13T08:29:49.136Z,1.65
2022-12-13T08:32:19.392Z,1.84
2022-12-13T08:34:47.701Z,2.27
2022-12-13T08:37:15.977Z,2.57
2022-12-13T08:39:47.327Z,3.59
2022-12-13T08:42:20.269Z,4.79
2022-12-13T08:44:50.718Z,4.31
2022-12-13T08:47:24.101Z,5.30
2022-12-13T08:50:04.350Z,6.88
2022-12-13T08:52:39.163Z,7.82
2022-12-13T08:55:10.836Z,7.84
2022-12-13T08:57:41.006Z,9.67
2022-12-13T09:00:14.842Z,8.79
2022-12-13T09:02:45.520Z,9.43
2022-12-13T09:05:34.373Z,9.83
2022-12-13T09:08:24.030Z,8.66
2022-12-13T09:11:10.478Z,8.45
2022-12-13T09:13:49.394Z,8.41
2022-12-13T09:16:26.135Z,9.34
2022-12-13T09:18:55.118Z,9.16
2022-12-13T09:21:31.374Z,9.97
2022-12-13T09:24:01.369Z,7.39
2022-12-13T09:26:38.453Z,5.94
2022-12-13T09:29:10.887Z,6.57
2022-12-13T09:31:40.783Z,6.41
2022-12-13T09:34:10.541Z,6.83
2022-12-13T09:36:38.769Z,6.46
2022-12-13T09:39:06.805Z,5.77
2022-12-13T09:41:41.476Z,6.26
2022-12-13T09:44:32.730Z,6.37
2022-12-13T09:47:14.052Z,7.21
2022-12-13T09:49:52.193Z,9.20
2022-12-13T09:52:23.895Z,10.60
2022-12-13T09:54:56.316Z,10.74
2022-12-13T09:57:33.833Z,11.34
2022-12-13T10:00:05.671Z,11.49
2022-12-13T10:02:49.178Z,11.80
2022-12-13T10:05:24.743Z,12.69
2022-12-13T10:08:13.458Z,12.09
2022-12-13T10:10:43.786Z,13.86
2022-12-13T10:13:19.523Z,13.54
2022-12-13T10:15:55.291Z,14.19
2022-12-13T10:18:32.265Z,14.79
2022-12-13T10:21:03.607Z,13.49
2022-12-13T10:23:52.972Z,14.91
2022-12-13T10:26:24.532Z,15.09
2022-12-13T10:29:03.811Z,15.61
2022-12-13T10:31:39.822Z,13.92
2022-12-13T10:34:24.781Z,14.61
2022-12-13T10:36:53.222Z,15.00
2022-12-13T10:39:40.699Z,14.64
2022-12-13T10:42:33.626Z,15.15
2022-12-13T10:45:23.815Z,14.85
2022-12-13T10:47:58.098Z,13.32
2022-12-13T10:50:31.533Z,13.11
2022-12-13T10:53:00.905Z,13.36
2022-12-13T10:55:32.898Z,13.24
2022-12-13T10:58:05.378Z,13.76
2022-12-13T11:00:46.782Z,13.50
2022-12-13T11:03:34.455Z,13.67
2022-12-13T11:06:13.013Z,12.44
2022-12-13T11:08:43.362Z,14.29
2022-12-13T11:11:12.607Z,12.36
2022-12-13T11:13:51.890Z,12.27
2022-12-13T11:16:32.989Z,13.32
2022-12-13T11:19:06.483Z,14.14
2022-12-13T11:21:37.381Z,12.30
2022-12-13T11:24:08.135Z,13.87
2022-12-13T11:26:38.536Z,13.44
2022-12-13T11:29:38.482Z,11.72
2022-12-13T11:32:11.195Z,12.08
2022-12-13T11:35:02.893Z,12.57
2022-12-13T11:37:46.226Z,11.04
2022-12-13T11:40:26.069Z,12.77
2022-12-13T11:43:00.358Z,13.31
2022-12-13T11:45:32.120Z,13.51
2022-12-13T11:48:09.255Z,12.95
2022-12-13T11:50:41.178Z,12.45
2022-12-13T11:53:21.189Z,12.29
2022-12-13T11:56:12.181Z,12.85
2022-12-13T11:59:22.431Z,11.73
2022-12-13T12:01:55.486Z,11.29
2022-12-13T12:04:23.933Z,10.53
2022-12-13T12:07:31.712Z,11.58
2022-12-13T12:10:25.466Z,11.83
2022-12-13T12:13:02.908Z,11.68
2022-12-13T12:15:41.713Z,12.04
2022-12-13T12:18:16.924Z,10.33
2022-12-13T12:20:54.311Z,9.95
2022-12-13T12:23:53.122Z,11.20
2022-12-13T12:26:27.939Z,8.80
2022-12-13T12:29:27.533Z,9.48
2022-12-13T12:32:08.550Z,10.03
2022-12-13T12:34:58.156Z,9.97
2022-12-13T12:37:41.162Z,8.57
2022-12-13T12:41:07.101Z,6.89
2022-12-13T12:43:38.931Z,7.15
2022-12-13T12:46:18.549Z,6.37
2022-12-13T12:49:29.511Z,6.84
2022-12-13T12:52:00.401Z,6.44
2022-12-13T12:54:43.752Z,6.00
2022-12-13T12:57:35.488Z,6.47
2022-12-13T13:00:04.198Z,5.61
2022-12-13T13:03:26.728Z,5.36
2022-12-13T13:06:05.252Z,6.00
2022-12-13T13:08:39.522Z,5.38
2022-12-13T13:11:24.035Z,5.22
2022-12-13T13:14:01.259Z,4.81
2022-12-13T13:16:41.139Z,5.16
2022-12-13T13:19:12.207Z,4.70
2022-12-13T13:21:47.486Z,4.99
2022-12-13T13:24:19.194Z,4.47
2022-12-13T13:26:51.480Z,4.84
2022-12-13T13:29:27.573Z,4.99
2022-12-13T13:32:11.216Z,4.36
2022-12-13T13:34:42.759Z,3.71
2022-12-13T13:37:22.809Z,3.15
2022-12-13T13:39:56.574Z,3.59
2022-12-13T13:42:27.008Z,3.37
2022-12-13T13:45:03.557Z,3.31
2022-12-13T13:47:39.272Z,3.22
2022-12-13T13:50:14.595Z,3.18
2022-12-13T13:53:04.134Z,2.21
2022-12-13T13:55:40.782Z,2.39
2022-12-13T13:58:21.327Z,2.45
2022-12-13T14:01:29.720Z,2.37
2022-12-13T14:04:17.300Z,2.31
2022-12-13T14:07:04.435Z,2.15
2022-12-13T14:10:00.519Z,2.17
2022-12-13T14:12:51.062Z,1.59
2022-12-13T14:15:49.587Z,1.00
2022-12-13T14:18:56.560Z,1.39
2022-12-13T14:21:37.303Z,1.08
2022-12-13T14:24:22.702Z,0.74
2022-12-13T14:26:59.876Z,1.61
2022-12-13T14:29:58.299Z,2.44
2022-12-13T14:32:30.050Z,2.25
2022-12-13T14:34:58.906Z,1.27
2022-12-13T14:37:28.860Z,1.06
2022-12-13T14:39:58.179Z,1.46
2022-12-13T14:42:37.630Z,1.93
2022-12-13T14:45:31.392Z,1.25
2022-12-13T14:48:12.502Z,0.22
2022-12-13T14:50:42.110Z,0.23
2022-12-13T14:53:22.609Z,1.16
2022-12-13T14:56:09.160Z,1.13
2022-12-13T14:58:38.091Z,1.14
2022-12-13T15:01:29.202Z,0.79
2022-12-13T15:04:23.241Z,0.88
2022-12-13T15:06:59.055Z,-0.79
2022-12-13T15:09:28.855Z,-0.61
2022-12-13T15:12:15.025Z,-0.84
2022-12-13T15:14:49.601Z,-0.57
2022-12-13T15:17:32.102Z,-0.96
2022-12-13T15:20:25.577Z,-0.43
2022-12-13T15:23:05.011Z,-0.32
2022-12-13T15:25:40.621Z,-0.13
2022-12-13T15:28:18.225Z,-0.40
2022-12-13T15:30:49.340Z,-0.67
2022-12-13T15:33:29.043Z,-0.75
2022-12-13T15:36:06.691Z,-1.19
2022-12-13T15:38:36.862Z,-0.70
2022-12-13T15:41:08.771Z,-0.72
2022-12-13T15:43:43.399Z,-1.08
2022-12-13T15:46:13.311Z,-0.54
2022-12-13T15:48:49.215Z,-1.46
2022-12-13T15:51:30.072Z,-1.39
2022-12-13T15:54:21.372Z,-0.76
2022-12-13T15:57:04.485Z,-0.81
2022-12-13T16:00:17.188Z,-0.16
2022-12-13T16:02:56.811Z,-0.37
2022-12-13T16:05:30.097Z,-0.49
2022-12-13T16:08:25.544Z,-0.63
2022-12-13T16:10:56.522Z,-0.71
2022-12-13T16:13:30.906Z,-0.82
2022-12-13T16:16:08.584Z,-1.07
2022-12-13T16:19:12.839Z,-1.22
2022-12-13T16:21:45.880Z,-1.38
2022-12-13T16:24:14.066Z,-1.35
2022-12-13T16:26:46.906Z,-1.43
2022-12-13T16:29:19.971Z,-1.47
2022-12-13T16:31:48.769Z,-1.20
2022-12-13T16:34:19.805Z,-1.22
2022-12-13T16:36:54.471Z,-1.55
2022-12-13T16:39:24.732Z,-1.96
2022-12-13T16:41:54.281Z,-1.57
2022-12-13T16:44:36.434Z,-1.90
2022-12-13T16:47:15.374Z,-2.36
2022-12-13T16:49:51.115Z,-2.85
2022-12-13T16:52:20.798Z,-1.84
2022-12-13T16:54:49.182Z,-1.75
2022-12-13T16:57:16.986Z,-2.11
2022-12-13T16:59:45.002Z,-2.36
2022-12-13T17:02:17.242Z,-2.03
2022-12-13T17:04:47.542Z,-2.08
2022-12-13T17:07:15.878Z,-3.33
2022-12-13T17:09:44.121Z,-3.54
2022-12-13T17:12:11.948Z,-2.38
2022-12-13T17:14:40.167Z,-2.28
2022-12-13T17:17:10.622Z,-2.57
2022-12-13T17:19:44.587Z,-2.71
2022-12-13T17:22:12.416Z,-2.72
2022-12-13T17:24:40.361Z,-2.74
2022-12-13T17:27:08.770Z,-3.69
2022-12-13T17:29:37.011Z,-3.97
2022-12-13T17:32:05.208Z,-3.28
2022-12-13T17:34:33.341Z,-2.83
2022-12-13T17:37:05.607Z,-2.86
2022-12-13T17:39:36.912Z,-3.10
2022-12-13T17:42:05.060Z,-3.64
2022-12-13T17:44:32.884Z,-3.15
2022-12-13T17:47:01.060Z,-3.20
2022-12-13T17:49:29.115Z,-3.24
2022-12-13T17:51:57.271Z,-3.53
2022-12-13T17:54:26.277Z,-3.60
2022-12-13T17:56:54.738Z,-4.07
2022-12-13T17:59:23.291Z,-3.40
2022-12-13T18:01:51.834Z,-3.41
2022-12-13T18:04:20.863Z,-3.71
2022-12-13T18:06:50.930Z,-3.55
2022-12-13T18:09:19.610Z,-3.93
2022-12-13T18:11:48.578Z,-3.60
2022-12-13T18:14:16.604Z,-3.68
2022-12-13T18:16:44.736Z,-4.13
2022-12-13T18:19:14.409Z,-3.88
2022-12-13T18:21:43.923Z,-3.80
2022-12-13T18:24:12.844Z,-3.87
2022-12-13T18:26:42.012Z,-4.00
2022-12-13T18:29:10.038Z,-4.11
2022-12-13T18:31:38.436Z,-4.44
2022-12-13T18:34:08.917Z,-5.31
2022-12-13T18:36:37.466Z,-4.32
2022-12-13T18:39:05.860Z,-4.25
2022-12-13T18:41:34.170Z,-4.23
2022-12-13T18:44:05.274Z,-4.23
2022-12-13T18:46:35.437Z,-4.32
2022-12-13T18:49:04.583Z,-4.41
2022-12-13T18:51:33.286Z,-4.57
2022-12-13T18:54:01.606Z,-4.59
2022-12-13T18:56:29.572Z,-4.64
2022-12-13T18:58:58.376Z,-4.64
2022-12-13T19:01:30.878Z,-4.57
2022-12-13T19:03:59.312Z,-4.54
2022-12-13T19:06:28.281Z,-4.61
2022-12-13T19:08:57.796Z,-4.65
2022-12-13T19:11:27.460Z,-4.59
2022-12-13T19:13:56.107Z,-4.63
2022-12-13T19:16:24.977Z,-4.72
2022-12-13T19:18:54.315Z,-4.71
2022-12-13T19:21:23.114Z,-4.74
2022-12-13T19:23:56.806Z,-4.77
2022-12-13T19:26:29.805Z,-4.71
2022-12-13T19:28:58.906Z,-4.71
2022-12-13T19:31:31.703Z,-4.76
2022-12-13T19:34:02.431Z,-4.83
2022-12-13T19:36:32.032Z,-4.77
2022-12-13T19:39:00.296Z,-5.28
2022-12-13T19:41:28.398Z,-5.81
2022-12-13T19:43:56.826Z,-4.83
2022-12-13T19:46:24.874Z,-4.60
2022-12-13T19:48:52.735Z,-4.60
2022-12-13T19:51:22.176Z,-4.50
2022-12-13T19:53:50.293Z,-4.65
2022-12-13T19:56:19.976Z,-4.87
2022-12-13T19:58:49.516Z,-5.77
2022-12-13T20:01:18.193Z,-5.35
2022-12-13T20:03:47.191Z,-5.18
2022-12-13T20:06:19.391Z,-4.97
2022-12-13T20:08:47.638Z,-4.82
2022-12-13T20:11:19.646Z,-4.77
2022-12-13T20:13:49.123Z,-5.32
2022-12-13T20:16:18.991Z,-4.97
2022-12-13T20:18:48.945Z,-4.97
2022-12-13T20:21:16.891Z,-5.03
2022-12-13T20:23:48.907Z,-5.28
2022-12-13T20:26:21.198Z,-5.17
2022-12-13T20:28:49.778Z,-5.17
2022-12-13T20:31:20.566Z,-5.12
2022-12-13T20:33:48.873Z,-5.14
2022-12-13T20:36:24.778Z,-5.23
2022-12-13T20:38:56.220Z,-5.26
2022-12-13T20:41:26.714Z,-5.50
2022-12-13T20:43:56.607Z,-5.68
2022-12-13T20:46:26.029Z,-5.70
2022-12-13T20:48:55.414Z,-5.82
2022-12-13T20:51:25.196Z,-4.94
2022-12-13T20:53:54.567Z,-4.93
2022-12-13T20:56:24.899Z,-5.72
2022-12-13T20:58:53.292Z,-4.89
2022-12-13T21:01:25.208Z,-4.72
2022-12-13T21:03:55.295Z,-4.85
2022-12-13T21:06:23.437Z,-4.68
2022-12-13T21:08:51.341Z,-5.20
2022-12-13T21:11:26.641Z,-5.01
2022-12-13T21:13:56.321Z,-4.76
2022-12-13T21:16:26.668Z,-5.79
2022-12-13T21:18:56.190Z,-5.40
2022-12-13T21:21:25.049Z,-4.89
2022-12-13T21:23:54.479Z,-4.66
2022-12-13T21:26:23.347Z,-4.70
2022-12-13T21:29:00.328Z,-4.70
2022-12-13T21:31:28.725Z,-4.72
2022-12-13T21:33:59.417Z,-4.86
2022-12-13T21:36:29.409Z,-5.07
2022-12-13T21:39:00.469Z,-5.68
2022-12-13T21:41:29.327Z,-4.91
2022-12-13T21:43:57.520Z,-5.37
2022-12-13T21:46:47.491Z,-5.22
2022-12-13T21:49:16.662Z,-4.74
2022-12-13T21:51:47.873Z,-4.81
2022-12-13T21:54:17.485Z,-5.24
2022-12-13T21:57:11.450Z,-5.64
2022-12-13T21:59:39.708Z,-6.13
2022-12-13T22:02:12.305Z,-5.46
2022-12-13T22:04:47.909Z,-5.29
2022-12-13T22:07:23.800Z,-4.81
2022-12-13T22:09:53.424Z,-4.87
2022-12-13T22:12:24.537Z,-5.11
2022-12-13T22:14:53.687Z,-5.45
2022-12-13T22:17:31.237Z,-5.08
2022-12-13T22:20:02.396Z,-5.07
2022-12-13T22:22:31.110Z,-4.84
2022-12-13T22:24:59.173Z,-4.82
2022-12-13T22:27:27.359Z,-4.94
2022-12-13T22:29:57.308Z,-4.82
2022-12-13T22:32:27.232Z,-4.82
2022-12-13T22:34:55.621Z,-5.23
2022-12-13T22:37:23.770Z,-5.35
2022-12-13T22:39:51.950Z,-5.39
2022-12-13T22:42:20.648Z,-5.09
2022-12-13T22:44:48.649Z,-4.97
2022-12-13T22:47:16.694Z,-4.64
2022-12-13T22:49:44.937Z,-4.21
2022-12-13T22:52:17.280Z,-4.47
2022-12-13T22:54:45.610Z,-4.26
2022-12-13T22:57:13.669Z,-3.79
2022-12-13T22:59:41.591Z,-3.69
2022-12-13T23:02:10.469Z,-3.73
2022-12-13T23:04:38.421Z,-3.66
2022-12-13T23:07:06.429Z,-3.01
2022-12-13T23:09:34.649Z,-2.55
2022-12-13T23:12:21.419Z,-2.63
2022-12-13T23:14:52.049Z,-3.20
2022-12-13T23:17:20.237Z,-2.96
2022-12-13T23:19:48.936Z,-2.62
2022-12-13T23:22:23.281Z,-2.63
2022-12-13T23:24:52.169Z,-2.58
2022-12-13T23:27:22.900Z,-2.39
2022-12-13T23:29:50.812Z,-2.48
2022-12-13T23:32:18.819Z,-2.08
2022-12-13T23:34:47.037Z,-2.64
2022-12-13T23:37:14.966Z,-2.80
2022-12-13T23:39:42.867Z,-2.46
2022-12-13T23:42:11.127Z,-2.02
2022-12-13T23:44:39.051Z,-1.88
2022-12-13T23:47:07.084Z,-1.93
2022-12-13T23:49:35.327Z,-2.14
2022-12-13T23:52:03.210Z,-2.25
2022-12-13T23:54:31.100Z,-1.95
2022-12-13T23:56:59.352Z,-1.82
2022-12-13T23:59:28.207Z,-2.31
